This is the latest recevied weather packets stored in our database for station/object EA2ESA-13. If no packets are shown the sender has not sent any weather packets the latest 10 day(s).
| Time | Temp. | Humidity | Pressure | Rain* | Wind** | Luminosity | Snow |
|---|---|---|---|---|---|---|---|
| 1777986796 | 16.11° C | 72% | 1018.8 hPa | 0 mm | 0 m/s | - | - |
| 1777986195 | 16.67° C | 70% | 1018.7 hPa | 0 mm | 0 m/s | - | - |
| 1777985594 | 17.22° C | 70% | 1018.8 hPa | 0 mm | 0 m/s | - | - |
| 1777984993 | 17.78° C | 67% | 1018.6 hPa | 0 mm | 0 m/s | - | - |
| 1777984392 | 17.78° C | 66% | 1018.5 hPa | 0 mm | 0 m/s | - | - |
| 1777983792 | 18.33° C | 65% | 1018.4 hPa | 0 mm | 0 m/s | - | - |
| 1777983190 | 18.33° C | 65% | 1018.3 hPa | 0 mm | 0 m/s | - | - |
| 1777982590 | 18.33° C | 66% | 1018.3 hPa | 0 mm | 0 m/s | - | - |
| 1777981989 | 18.33° C | 68% | 1018.5 hPa | 0 mm | 0 m/s | - | - |
| 1777981388 | 17.78° C | 69% | 1018.6 hPa | 0 mm | 0 m/s | - | - |
| 1777980787 | 17.22° C | 69% | 1018.5 hPa | 0 mm | 0 m/s | - | - |
| 1777980186 | 16.67° C | 71% | 1018.7 hPa | 0 mm | 0 m/s | - | - |
| 1777979583 | 16.67° C | 71% | 1018.8 hPa | 0 mm | 0 m/s | - | - |
| 1777978982 | 16.67° C | 69% | 1018.7 hPa | 0 mm | 0 m/s | - | - |
| 1777978381 | 17.22° C | 67% | 1018.7 hPa | 0 mm | 0 m/s | - | - |
| 1777977780 | 17.22° C | 68% | 1018.8 hPa | 0 mm | 0 m/s | - | - |
| 1777977179 | 17.22° C | 68% | 1018.7 hPa | 0 mm | 0 m/s | - | - |
| 1777976578 | 16.67° C | 70% | 1018.7 hPa | 0 mm | 0 m/s | - | - |
| 1777975977 | 17.22° C | 72% | 1018.7 hPa | 0 mm | 0 m/s | - | - |
| 1777975376 | 17.22° C | 75% | 1018.6 hPa | 0 mm | 0 m/s | - | - |
| 1777974773 | 16.67° C | 76% | 1018.7 hPa | 0 mm | 0 m/s | - | - |
| 1777974173 | 16.11° C | 77% | 1018.7 hPa | 0 mm | 0 m/s | - | - |
| 1777973572 | 15.56° C | 78% | 1018.7 hPa | 0 mm | 0 m/s | - | - |
| 1777972971 | 15.56° C | 80% | 1018.6 hPa | 0 mm | 0 m/s | - | - |
| 1777972370 | 15.56° C | 80% | 1018.6 hPa | 0 mm | 0 m/s | - | - |
* Rain latest hour (hover to see other rain measurements)
** Current wind speed in m/s (hover to see current wind gust speed)